Terminal Aerodrome Forecast
Issued by NWS

Home | Current Version | Previous Version | Text Only | Print | Product List | Glossary On
Versions: 1 2 3 4 5 6 7 8 9 10 11 12 13 14 15
000
FTUS42 KFFC 230937 AAA
TAFFTY
TAF AMD
KFTY 230937Z 2310/2406 10010G17KT 4SM SHRA BR BKN006 OVC012
      TEMPO 2313/2316 VRB10G20KT 3SM TSRA BKN010CB
     FM231600 21012G22KT 3SM SHRA OVC010
     FM231900 25010KT P6SM VCSH SCT020
     FM232200 29008KT P6SM SCT250
     FM240500 29004KT P6SM SKC=

USA.gov is the U.S. government's official web portal to all federal, state and local government web resources and services.